Time;durP1;ratioP1;P1;durP2;ratioP2;P2;SDS_P1;SDS_P2;PMS_P1;PMS_P2;Temp;Humidity;BMP_temperature;BMP_pressure;BME280_temperature;BME280_humidity;BME280_pressure;Samples;Min_cycle;Max_cycle;Signal;HPM_P1;HPM_P2
2020/12/29 00:01:51;;;;;;;5.13;2.40;;;;;;;3.96;100.00;96808.02;647248;218;23882;-70
2020/12/29 00:04:20;;;;;;;3.60;2.03;;;;;;;3.90;100.00;96807.46;646513;218;25039;-72
2020/12/29 00:06:47;;;;;;;2.70;2.00;;;;;;;3.78;100.00;96809.74;645272;220;24791;-70
2020/12/29 00:09:15;;;;;;;1.93;1.80;;;;;;;3.74;100.00;96809.03;642670;221;24789;-72
2020/12/29 00:11:43;;;;;;;2.03;1.83;;;;;;;3.78;100.00;96807.17;640572;221;24818;-72
2020/12/29 00:14:13;;;;;;;2.27;2.00;;;;;;;3.63;100.00;96808.24;654686;217;24782;-70
2020/12/29 00:16:41;;;;;;;1.80;1.37;;;;;;;3.63;100.00;96803.90;640125;221;24875;-71
2020/12/29 00:19:09;;;;;;;2.20;2.00;;;;;;;3.55;100.00;96804.84;640251;221;24841;-71
2020/12/29 00:21:37;;;;;;;2.00;1.80;;;;;;;3.60;100.00;96799.63;641075;221;24835;-72
2020/12/29 00:24:06;;;;;;;2.97;2.37;;;;;;;3.57;100.00;96801.59;652499;217;24782;-72
2020/12/29 00:26:34;;;;;;;2.30;1.80;;;;;;;3.47;100.00;96796.45;653184;217;28986;-72
2020/12/29 00:29:02;;;;;;;2.70;1.77;;;;;;;3.57;100.00;96795.17;640953;221;27004;-69
2020/12/29 00:31:30;;;;;;;2.10;1.90;;;;;;;3.57;100.00;96799.02;642026;221;24892;-71
2020/12/29 00:33:58;;;;;;;3.47;1.90;;;;;;;3.56;100.00;96793.58;640290;222;24818;-70
2020/12/29 00:36:26;;;;;;;2.47;2.27;;;;;;;3.57;100.00;96800.31;640381;221;24857;-70
2020/12/29 00:38:54;;;;;;;1.97;1.60;;;;;;;3.42;100.00;96800.08;641821;222;27027;-71
2020/12/29 00:41:22;;;;;;;4.17;2.07;;;;;;;3.56;100.00;96806.43;648573;218;24800;-70
2020/12/29 00:43:50;;;;;;;1.83;1.50;;;;;;;3.39;100.00;96804.31;649808;218;24760;-72
2020/12/29 00:46:18;;;;;;;1.80;1.70;;;;;;;3.28;100.00;96806.87;648790;218;27948;-72
2020/12/29 00:48:46;;;;;;;2.95;1.80;;;;;;;3.90;100.00;96807.95;643905;217;32978;-69
2020/12/29 00:51:14;;;;;;;1.90;1.40;;;;;;;3.66;100.00;96804.01;641455;222;23720;-71
2020/12/29 00:53:42;;;;;;;3.97;2.17;;;;;;;3.63;100.00;96803.10;640656;222;24848;-70
2020/12/29 00:56:10;;;;;;;5.03;2.00;;;;;;;3.46;100.00;96804.66;639418;221;24843;-71
2020/12/29 00:58:38;;;;;;;2.13;1.93;;;;;;;3.42;100.00;96792.37;639648;221;25868;-69
2020/12/29 01:01:06;;;;;;;2.60;1.77;;;;;;;3.42;100.00;96797.02;640392;221;31735;-72
2020/12/29 01:03:34;;;;;;;1.73;1.63;;;;;;;3.39;100.00;96794.03;641019;217;24821;-70
2020/12/29 01:06:01;;;;;;;2.10;1.90;;;;;;;3.31;100.00;96805.21;640604;222;24886;-71
2020/12/29 01:08:29;;;;;;;2.10;1.90;;;;;;;3.18;100.00;96805.09;640900;222;24810;-71
2020/12/29 01:10:57;;;;;;;2.20;1.70;;;;;;;3.03;100.00;96805.63;644899;221;28027;-72
2020/12/29 01:13:25;;;;;;;2.10;1.90;;;;;;;3.21;100.00;96812.41;640542;222;24826;-71
2020/12/29 01:15:53;;;;;;;2.80;1.87;;;;;;;3.02;100.00;96811.73;639935;222;24829;-71
2020/12/29 01:18:21;;;;;;;2.00;1.80;;;;;;;3.21;100.00;96808.56;653913;216;24786;-70
2020/12/29 01:20:49;;;;;;;3.87;1.80;;;;;;;3.19;100.00;96807.95;642148;221;24821;-71
2020/12/29 01:23:17;;;;;;;8.93;2.33;;;;;;;3.23;100.00;96813.02;655722;217;24802;-72
2020/12/29 01:25:45;;;;;;;2.60;2.10;;;;;;;3.27;100.00;96811.70;641938;220;24841;-70
2020/12/29 01:28:13;;;;;;;3.00;2.50;;;;;;;3.59;100.00;96815.53;621868;225;32967;-71
2020/12/29 01:30:41;;;;;;;4.10;2.00;;;;;;;3.44;100.00;96811.75;639822;221;24870;-70
2020/12/29 01:33:09;;;;;;;3.87;2.35;;;;;;;3.93;100.00;96817.86;631091;221;32694;-72
2020/12/29 01:35:37;;;;;;;2.53;1.93;;;;;;;3.45;100.00;96818.48;655795;217;23677;-70
2020/12/29 01:38:05;;;;;;;6.63;1.80;;;;;;;3.58;100.00;96822.45;638693;222;26967;-71
2020/12/29 01:40:33;;;;;;;2.03;1.50;;;;;;;3.51;100.00;96825.92;641726;221;24833;-72
2020/12/29 01:43:01;;;;;;;1.47;1.37;;;;;;;3.53;100.00;96828.64;642256;221;25129;-70
2020/12/29 01:45:29;;;;;;;3.10;1.23;;;;;;;3.73;100.00;96826.72;641376;221;24809;-71
2020/12/29 01:47:57;;;;;;;3.17;1.20;;;;;;;3.68;100.00;96830.34;640505;221;24833;-71
2020/12/29 01:50:25;;;;;;;2.95;1.10;;;;;;;4.01;100.00;96824.95;635949;221;32955;-71
2020/12/29 01:52:56;;;;;;;0.73;0.73;;;;;;;3.94;100.00;96829.27;640912;218;23723;-72
2020/12/29 01:55:24;;;;;;;1.27;0.80;;;;;;;3.88;100.00;96823.08;640373;221;24829;-70
2020/12/29 01:57:52;;;;;;;0.67;0.67;;;;;;;3.91;100.00;96824.96;642119;222;24800;-72
2020/12/29 02:00:20;;;;;;;0.93;0.60;;;;;;;4.11;100.00;96819.48;640229;222;25907;-71
2020/12/29 02:02:47;;;;;;;0.80;0.60;;;;;;;4.04;100.00;96824.56;643152;221;25931;-71
2020/12/29 02:05:15;;;;;;;1.17;0.63;;;;;;;4.07;100.00;96825.96;641696;221;24797;-70
2020/12/29 02:07:44;;;;;;;1.00;0.67;;;;;;;3.88;100.00;96833.36;641795;221;24867;-70
2020/12/29 02:10:11;;;;;;;1.10;0.70;;;;;;;4.20;100.00;96838.11;636650;221;32603;-72
2020/12/29 02:12:39;;;;;;;0.50;0.50;;;;;;;3.87;100.00;96842.54;641057;222;23745;-72
2020/12/29 02:15:07;;;;;;;0.70;0.63;;;;;;;3.88;100.00;96846.20;654813;217;24732;-72
2020/12/29 02:17:35;;;;;;;0.83;0.60;;;;;;;3.98;100.00;96842.03;640024;222;24798;-71
2020/12/29 02:20:03;;;;;;;4.10;0.60;;;;;;;3.92;100.00;96838.91;641797;222;24870;-69
2020/12/29 02:22:31;;;;;;;0.60;0.60;;;;;;;3.98;100.00;96848.46;648033;218;24817;-71
2020/12/29 02:24:59;;;;;;;1.13;0.70;;;;;;;3.96;100.00;96846.58;641374;222;24824;-72
2020/12/29 02:27:27;;;;;;;1.20;0.57;;;;;;;3.93;100.00;96848.20;653098;217;24733;-71
2020/12/29 02:29:55;;;;;;;1.23;0.80;;;;;;;4.07;100.00;96851.18;642872;219;24797;-71
2020/12/29 02:32:23;;;;;;;0.50;0.50;;;;;;;4.13;100.00;96845.30;656686;216;24839;-70
2020/12/29 02:34:51;;;;;;;1.23;0.50;;;;;;;4.02;100.00;96843.25;641833;221;24800;-71
2020/12/29 02:37:19;;;;;;;5.60;0.60;;;;;;;4.11;100.00;96842.13;649573;218;24960;-70
2020/12/29 02:39:50;;;;;;;0.50;0.50;;;;;;;4.00;100.00;96843.13;641354;221;24798;-71
2020/12/29 02:42:18;;;;;;;0.60;0.60;;;;;;;4.06;100.00;96854.73;641073;221;24764;-71
2020/12/29 02:44:46;;;;;;;0.67;0.50;;;;;;;4.11;100.00;96847.27;642972;221;24810;-70
2020/12/29 02:47:14;;;;;;;0.90;0.50;;;;;;;4.16;100.00;96851.35;654470;217;24734;-71
2020/12/29 02:49:42;;;;;;;2.50;1.47;;;;;;;4.17;100.00;96849.08;654423;217;24753;-71
2020/12/29 02:52:10;;;;;;;0.57;0.57;;;;;;;4.25;100.00;96852.51;640961;221;24879;-71
2020/12/29 02:54:38;;;;;;;1.00;0.60;;;;;;;4.16;100.00;96847.98;642425;220;24781;-72
2020/12/29 02:57:06;;;;;;;1.90;0.60;;;;;;;4.28;100.00;96847.77;640045;221;24907;-69
2020/12/29 02:59:34;;;;;;;1.73;0.60;;;;;;;4.25;100.00;96851.22;639715;221;24835;-71
2020/12/29 03:02:02;;;;;;;0.55;0.50;;;;;;;4.46;100.00;96849.36;634078;221;32682;-72
2020/12/29 03:04:31;;;;;;;0.70;0.70;;;;;;;4.42;100.00;96849.44;639850;221;23664;-71
2020/12/29 03:06:59;;;;;;;0.60;0.60;;;;;;;4.36;100.00;96851.50;638025;221;24818;-71
2020/12/29 03:09:27;;;;;;;2.70;0.70;;;;;;;4.43;100.00;96851.52;638432;221;24824;-71
2020/12/29 03:11:55;;;;;;;1.13;0.70;;;;;;;4.39;100.00;96856.75;639814;222;26068;-70
2020/12/29 03:14:23;;;;;;;1.20;0.50;;;;;;;4.42;100.00;96855.08;636226;221;32853;-71
2020/12/29 03:16:53;;;;;;;1.40;0.50;;;;;;;4.47;100.00;96856.58;641224;222;23682;-71
2020/12/29 03:19:22;;;;;;;0.70;0.70;;;;;;;4.48;100.00;96858.17;641181;221;24839;-71
2020/12/29 03:21:50;;;;;;;2.70;0.60;;;;;;;4.52;100.00;96861.17;641001;221;24809;-71
2020/12/29 03:24:17;;;;;;;0.63;0.50;;;;;;;4.56;100.00;96862.38;639876;221;28258;-72
2020/12/29 03:26:45;;;;;;;1.63;0.50;;;;;;;4.55;100.00;96879.59;641293;221;24808;-69
2020/12/29 03:29:13;;;;;;;0.93;0.50;;;;;;;4.54;100.00;96869.00;634807;221;32653;-72
2020/12/29 03:31:43;;;;;;;0.60;0.45;;;;;;;4.62;100.00;96871.41;634321;221;32685;-71
2020/12/29 03:34:15;;;;;;;1.35;0.50;;;;;;;4.61;100.00;96883.97;636870;221;32598;-72
2020/12/29 03:36:39;;;;;;;1.17;0.50;;;;;;;4.53;100.00;96885.92;627473;225;23736;-71
2020/12/29 03:39:07;;;;;;;3.10;0.90;;;;;;;4.50;100.00;96892.22;639518;222;27984;-71
2020/12/29 03:41:35;;;;;;;1.10;0.70;;;;;;;4.39;100.00;96892.77;644933;219;24786;-71
2020/12/29 03:44:02;;;;;;;4.87;0.60;;;;;;;4.35;100.00;96881.23;643073;220;24793;-71
2020/12/29 03:46:30;;;;;;;0.70;0.50;;;;;;;4.39;100.00;96904.34;647159;221;24810;-71
2020/12/29 03:48:58;;;;;;;3.43;0.60;;;;;;;4.41;100.00;96917.80;655187;217;24846;-69
2020/12/29 03:51:27;;;;;;;0.90;0.50;;;;;;;4.40;100.00;96908.50;637432;221;32666;-71
2020/12/29 03:53:55;;;;;;;1.85;0.50;;;;;;;4.40;100.00;96917.50;636225;221;32642;-72
2020/12/29 03:56:23;;;;;;;0.70;0.60;;;;;;;4.45;100.00;96928.02;642415;221;23695;-71
2020/12/29 03:58:51;;;;;;;0.50;0.50;;;;;;;4.36;100.00;96930.41;639544;221;24819;-70
2020/12/29 04:01:19;;;;;;;1.73;0.60;;;;;;;4.37;100.00;96942.33;639528;221;24811;-71
2020/12/29 04:03:46;;;;;;;1.83;0.60;;;;;;;4.20;100.00;96971.84;642388;221;24796;-70
2020/12/29 04:06:14;;;;;;;0.50;0.50;;;;;;;3.77;100.00;96979.05;647797;218;24741;-72
2020/12/29 04:08:42;;;;;;;0.60;0.50;;;;;;;3.51;100.00;97002.69;643079;218;32576;-72
2020/12/29 04:11:11;;;;;;;2.30;0.50;;;;;;;3.22;100.00;97002.72;640429;221;23700;-71
2020/12/29 04:13:39;;;;;;;0.60;0.50;;;;;;;3.05;100.00;97004.68;638609;221;24799;-72
2020/12/29 04:16:07;;;;;;;0.40;0.40;;;;;;;3.13;100.00;97007.66;642201;221;24786;-72
2020/12/29 04:18:35;;;;;;;0.40;0.40;;;;;;;2.86;100.00;97007.30;641750;222;24815;-72
2020/12/29 04:21:03;;;;;;;1.03;0.47;;;;;;;2.53;100.00;97009.83;640537;222;24767;-72
2020/12/29 04:23:31;;;;;;;0.40;0.40;;;;;;;2.47;100.00;97018.23;642972;221;25038;-71
2020/12/29 04:25:59;;;;;;;0.40;0.40;;;;;;;2.32;100.00;97019.47;650291;217;24783;-70
2020/12/29 04:28:26;;;;;;;0.40;0.40;;;;;;;2.09;100.00;97022.83;647809;218;24737;-72
2020/12/29 04:30:54;;;;;;;0.50;0.43;;;;;;;1.95;100.00;97029.17;649359;218;24746;-72
2020/12/29 04:33:22;;;;;;;0.50;0.50;;;;;;;1.95;100.00;97045.83;646541;218;24736;-71
2020/12/29 04:35:50;;;;;;;0.50;0.50;;;;;;;1.96;100.00;97037.97;647984;218;24772;-71
2020/12/29 04:38:18;;;;;;;0.40;0.40;;;;;;;2.02;100.00;97035.23;640124;222;24806;-69
2020/12/29 04:40:46;;;;;;;0.40;0.40;;;;;;;2.01;100.00;97042.61;642302;222;24818;-72
2020/12/29 04:43:14;;;;;;;0.40;0.40;;;;;;;2.01;100.00;97037.00;641041;221;24774;-72
2020/12/29 04:45:42;;;;;;;0.50;0.50;;;;;;;2.14;100.00;97054.38;642238;220;27975;-73
2020/12/29 04:48:10;;;;;;;1.90;0.40;;;;;;;2.10;100.00;97046.69;623120;225;32735;-72
2020/12/29 04:50:37;;;;;;;0.40;0.40;;;;;;;2.18;100.00;97056.11;644971;221;23649;-74
2020/12/29 04:53:05;;;;;;;0.50;0.50;;;;;;;2.29;100.00;97049.31;648109;219;24693;-72
2020/12/29 04:55:34;;;;;;;0.40;0.40;;;;;;;2.40;100.00;97048.12;642994;221;25217;-72
2020/12/29 04:58:01;;;;;;;0.40;0.30;;;;;;;2.44;100.00;97061.70;634159;221;32659;-74
2020/12/29 05:00:29;;;;;;;0.50;0.50;;;;;;;2.42;100.00;97075.18;642405;218;27969;-74
2020/12/29 05:02:57;;;;;;;0.70;0.50;;;;;;;2.31;100.00;97084.06;628265;225;24828;-73
2020/12/29 05:05:25;;;;;;;0.50;0.50;;;;;;;2.27;100.00;97085.86;641143;221;24808;-72
2020/12/29 05:07:53;;;;;;;0.62;0.40;;;;;;;1.99;100.00;97099.64;637129;221;32641;-72
2020/12/29 05:10:22;;;;;;;0.50;0.50;;;;;;;2.01;100.00;97102.34;639910;221;23679;-73
2020/12/29 05:12:50;;;;;;;0.50;0.50;;;;;;;1.90;100.00;97112.16;653787;217;24757;-74
2020/12/29 05:15:18;;;;;;;0.50;0.50;;;;;;;1.82;100.00;97109.63;653573;217;24747;-73
2020/12/29 05:17:46;;;;;;;0.40;0.40;;;;;;;1.83;100.00;97117.17;648802;217;32489;-72
2020/12/29 05:20:14;;;;;;;0.50;0.50;;;;;;;1.85;100.00;97118.28;649577;217;32698;-74
2020/12/29 05:22:42;;;;;;;0.50;0.40;;;;;;;1.77;100.00;97118.62;649127;217;32437;-73
2020/12/29 05:25:10;;;;;;;0.50;0.50;;;;;;;1.67;100.00;97124.89;652645;217;24758;-73
2020/12/29 05:27:38;;;;;;;0.40;0.40;;;;;;;1.75;100.00;97126.16;646451;217;32416;-73
2020/12/29 05:30:06;;;;;;;0.70;0.70;;;;;;;1.68;100.00;97136.73;653536;217;23674;-74
2020/12/29 05:32:38;;;;;;;0.62;0.60;;;;;;;1.67;100.00;97144.10;648522;217;33103;-74
2020/12/29 05:35:10;;;;;;;0.70;0.60;;;;;;;1.68;100.00;97150.82;648822;217;32452;-72
2020/12/29 05:37:39;;;;;;;0.60;0.60;;;;;;;1.62;100.00;97148.45;653502;217;23684;-74
2020/12/29 05:40:23;;;;;;;0.90;0.90;;;;;;;1.65;100.00;97156.28;651871;217;24743;-74
2020/12/29 05:42:53;;;;;;;0.40;0.40;;;;;;;1.70;100.00;97161.73;651806;217;24762;-72
2020/12/29 05:45:21;;;;;;;0.50;0.50;;;;;;;1.65;100.00;97155.80;653508;217;24802;-73
2020/12/29 05:47:53;;;;;;;0.50;0.50;;;;;;;1.68;100.00;97173.87;649431;217;32444;-74
2020/12/29 05:50:22;;;;;;;0.60;0.60;;;;;;;1.78;100.00;97182.98;653026;217;23671;-74
2020/12/29 05:52:52;;;;;;;0.60;0.60;;;;;;;1.73;100.00;97180.12;653490;217;24757;-71
2020/12/29 05:55:20;;;;;;;1.20;0.63;;;;;;;1.82;100.00;97196.73;650922;217;24832;-72
2020/12/29 05:58:01;;;;;;;0.60;0.60;;;;;;;1.86;100.00;97203.14;647648;217;32563;-73
2020/12/29 06:00:29;;;;;;;0.80;0.80;;;;;;;1.87;100.00;97216.27;653830;217;23695;-73
2020/12/29 06:02:57;;;;;;;0.60;0.60;;;;;;;1.98;100.00;97221.84;648154;217;32433;-72
2020/12/29 06:05:25;;;;;;;0.80;0.80;;;;;;;1.92;100.00;97228.89;655469;216;26862;-72
2020/12/29 06:07:54;;;;;;;0.80;0.70;;;;;;;1.96;100.00;97225.52;655750;216;24738;-72
2020/12/29 06:10:22;;;;;;;0.80;0.80;;;;;;;1.95;100.00;97234.17;654085;217;24737;-72
2020/12/29 06:12:53;;;;;;;0.70;0.70;;;;;;;1.99;100.00;97254.67;654931;217;25843;-71
2020/12/29 06:15:24;;;;;;;2.03;0.90;;;;;;;1.97;100.00;97264.27;654979;217;24762;-70
2020/12/29 06:17:55;;;;;;;0.80;0.80;;;;;;;2.16;100.00;97264.39;648096;217;32525;-74
2020/12/29 06:20:23;;;;;;;1.17;1.07;;;;;;;1.99;100.00;97263.64;655017;217;23929;-73
2020/12/29 06:22:51;;;;;;;0.90;0.90;;;;;;;2.02;100.00;97273.08;655736;217;24801;-74
2020/12/29 06:25:20;;;;;;;0.93;0.93;;;;;;;2.12;100.00;97283.16;646301;217;33256;-74
2020/12/29 06:27:52;;;;;;;0.90;0.90;;;;;;;1.97;100.00;97281.75;653287;217;23702;-75
2020/12/29 06:30:20;;;;;;;1.00;1.00;;;;;;;2.03;100.00;97299.02;654086;217;24792;-75
2020/12/29 06:32:49;;;;;;;1.00;0.80;;;;;;;2.09;100.00;97311.17;654586;217;24781;-70
2020/12/29 06:35:18;;;;;;;1.10;1.00;;;;;;;2.24;100.00;97320.27;648858;217;32843;-71
2020/12/29 06:37:48;;;;;;;0.90;0.90;;;;;;;2.36;100.00;97325.37;647920;217;32535;-72
2020/12/29 06:40:16;;;;;;;1.33;0.90;;;;;;;2.29;100.00;97343.67;652854;217;23655;-70
2020/12/29 06:42:43;;;;;;;1.00;0.90;;;;;;;2.22;100.00;97347.84;639941;222;25004;-70
2020/12/29 06:45:12;;;;;;;0.70;0.70;;;;;;;2.32;100.00;97354.88;640516;222;24789;-72
2020/12/29 06:47:39;;;;;;;0.70;0.70;;;;;;;2.27;100.00;97360.98;639355;222;24829;-74
2020/12/29 06:50:18;;;;;;;0.77;0.77;;;;;;;2.23;100.00;97377.64;641449;221;24946;-70
2020/12/29 06:52:46;;;;;;;0.88;0.80;;;;;;;2.32;100.00;97380.52;633240;221;32618;-73
2020/12/29 06:55:14;;;;;;;1.03;1.00;;;;;;;2.39;100.00;97385.78;638315;221;23718;-73
2020/12/29 06:57:47;;;;;;;2.03;1.00;;;;;;;2.37;100.00;97394.92;641733;221;24828;-70
2020/12/29 07:00:19;;;;;;;0.87;0.87;;;;;;;2.37;100.00;97411.59;641195;221;25142;-74
2020/12/29 07:02:47;;;;;;;0.80;0.80;;;;;;;2.33;100.00;97415.94;640995;221;24854;-72
2020/12/29 07:05:15;;;;;;;0.93;0.93;;;;;;;2.22;100.00;97418.34;639879;221;24782;-73
2020/12/29 07:07:51;;;;;;;0.90;0.90;;;;;;;2.25;100.00;97429.58;641027;221;24801;-73
2020/12/29 07:10:19;;;;;;;0.83;0.83;;;;;;;2.29;100.00;97436.46;627420;225;25176;-75
2020/12/29 07:12:46;;;;;;;0.80;0.80;;;;;;;2.34;100.00;97442.70;641418;222;24752;-73
2020/12/29 07:15:15;;;;;;;0.80;0.80;;;;;;;2.29;100.00;97444.95;641663;219;24803;-72
2020/12/29 07:17:54;;;;;;;0.90;0.90;;;;;;;2.26;100.00;97444.00;642888;220;24804;-71
2020/12/29 07:20:23;;;;;;;1.30;1.20;;;;;;;2.42;100.00;97450.88;642673;221;26083;-71
2020/12/29 07:22:56;;;;;;;0.90;0.90;;;;;;;2.30;100.00;97457.29;641864;221;24817;-70
2020/12/29 07:25:24;;;;;;;1.10;0.90;;;;;;;2.28;100.00;97465.15;642553;221;24801;-74
2020/12/29 07:27:55;;;;;;;0.87;0.87;;;;;;;2.23;100.00;97475.06;642243;220;24834;-72
2020/12/29 07:30:23;;;;;;;0.80;0.80;;;;;;;2.22;100.00;97477.79;642761;221;24831;-73
2020/12/29 07:32:51;;;;;;;0.90;0.90;;;;;;;2.31;100.00;97478.92;647922;218;26888;-72
2020/12/29 07:35:19;;;;;;;0.80;0.80;;;;;;;2.31;100.00;97498.63;648281;218;24844;-74
2020/12/29 07:37:49;;;;;;;0.83;0.83;;;;;;;2.26;100.00;97499.13;647632;218;24811;-73
2020/12/29 07:40:17;;;;;;;1.20;1.20;;;;;;;2.36;100.00;97501.03;641632;221;24837;-73
2020/12/29 07:42:45;;;;;;;1.77;1.67;;;;;;;2.35;100.00;97503.75;642336;221;24804;-72
2020/12/29 07:45:13;;;;;;;1.33;1.23;;;;;;;2.35;100.00;97516.09;638878;221;25881;-73
2020/12/29 07:47:41;;;;;;;0.90;0.90;;;;;;;2.32;100.00;97517.70;653175;217;24829;-74
2020/12/29 07:50:09;;;;;;;1.50;1.00;;;;;;;2.42;100.00;97527.02;649813;217;32463;-73
2020/12/29 07:52:37;;;;;;;1.17;1.00;;;;;;;2.42;100.00;97533.42;653419;217;24517;-71
2020/12/29 07:55:07;;;;;;;0.90;0.90;;;;;;;2.60;100.00;97543.83;647044;217;32489;-70
2020/12/29 07:57:35;;;;;;;1.37;1.27;;;;;;;2.63;100.00;97551.20;639087;217;23718;-72
2020/12/29 08:00:09;;;;;;;1.10;1.00;;;;;;;2.46;100.00;97565.47;652508;217;26104;-70
2020/12/29 08:02:37;;;;;;;0.90;0.90;;;;;;;2.44;100.00;97568.69;653894;217;24933;-75
2020/12/29 08:05:05;;;;;;;1.42;0.98;;;;;;;2.45;100.00;97570.28;647350;217;32459;-74
2020/12/29 08:07:33;;;;;;;1.70;1.42;;;;;;;2.47;100.00;97583.27;645922;217;32904;-73
2020/12/29 08:10:01;;;;;;;1.20;1.10;;;;;;;2.43;100.00;97589.69;653834;217;23654;-72
2020/12/29 08:12:29;;;;;;;0.80;0.80;;;;;;;2.42;100.00;97597.54;654920;217;24758;-73
2020/12/29 08:14:57;;;;;;;0.80;0.80;;;;;;;2.41;100.00;97595.94;653613;217;25186;-76
2020/12/29 08:17:25;;;;;;;1.23;1.10;;;;;;;2.47;100.00;97608.12;653632;217;24745;-72
2020/12/29 08:19:58;;;;;;;1.20;1.10;;;;;;;2.51;100.00;97614.05;651938;217;24800;-73
2020/12/29 08:22:29;;;;;;;0.80;0.80;;;;;;;2.45;100.00;97613.89;653269;217;25107;-73
2020/12/29 08:24:57;;;;;;;1.10;1.00;;;;;;;2.59;100.00;97623.53;649047;217;32424;-73
2020/12/29 08:27:25;;;;;;;1.10;1.00;;;;;;;2.53;100.00;97630.55;653349;216;23636;-73
2020/12/29 08:29:52;;;;;;;0.80;0.80;;;;;;;2.60;100.00;97632.83;654789;217;24878;-73
2020/12/29 08:32:22;;;;;;;2.10;0.80;;;;;;;2.60;100.00;97634.91;654399;217;24763;-73
2020/12/29 08:34:50;;;;;;;1.00;1.00;;;;;;;2.59;100.00;97647.41;653189;217;24750;-72
2020/12/29 08:37:22;;;;;;;0.93;0.90;;;;;;;2.73;100.00;97657.53;637901;217;24837;-73
2020/12/29 08:40:00;;;;;;;0.83;0.83;;;;;;;2.69;100.00;97653.69;653523;217;24808;-74
2020/12/29 08:42:28;;;;;;;0.80;0.80;;;;;;;2.68;100.00;97658.02;654568;217;24772;-73
2020/12/29 08:44:56;;;;;;;0.90;0.90;;;;;;;2.78;100.00;97675.02;653423;217;24743;-73
2020/12/29 08:47:24;;;;;;;0.97;0.80;;;;;;;2.74;100.00;97684.00;652562;217;26901;-73
2020/12/29 08:49:52;;;;;;;0.83;0.83;;;;;;;2.77;100.00;97693.45;641775;221;25494;-75
2020/12/29 08:52:30;;;;;;;1.20;1.10;;;;;;;2.87;100.00;97710.80;642356;221;24763;-73
2020/12/29 08:54:58;;;;;;;0.83;0.83;;;;;;;2.95;100.00;97713.36;640808;221;24797;-73
2020/12/29 08:57:27;;;;;;;1.00;0.90;;;;;;;2.89;100.00;97719.14;640063;221;24786;-74
2020/12/29 08:59:55;;;;;;;1.00;1.00;;;;;;;2.92;100.00;97725.23;641112;221;24797;-73
2020/12/29 09:02:30;;;;;;;0.80;0.80;;;;;;;2.93;100.00;97744.81;641406;221;24821;-76
2020/12/29 09:05:00;;;;;;;1.33;1.23;;;;;;;3.11;100.00;97749.03;640385;222;25081;-72
2020/12/29 09:07:28;;;;;;;0.93;0.93;;;;;;;3.10;100.00;97757.22;638838;221;24912;-71
2020/12/29 09:10:03;;;;;;;0.70;0.70;;;;;;;3.11;100.00;97768.29;640179;221;27968;-71
2020/12/29 09:12:30;;;;;;;0.70;0.70;;;;;;;3.08;100.00;97769.38;653288;217;24782;-72
2020/12/29 09:14:58;;;;;;;0.80;0.80;;;;;;;3.13;100.00;97774.06;639392;222;24772;-74
2020/12/29 09:17:26;;;;;;;1.33;1.20;;;;;;;3.36;100.00;97784.50;640228;222;24792;-71
2020/12/29 09:20:05;;;;;;;1.00;1.00;;;;;;;3.22;100.00;97780.80;642735;222;25026;-71
2020/12/29 09:22:33;;;;;;;1.57;1.47;;;;;;;3.36;100.00;97794.78;652720;217;24819;-74
2020/12/29 09:25:01;;;;;;;2.47;1.90;;;;;;;3.33;100.00;97793.34;641594;218;43241;-71
2020/12/29 09:27:29;;;;;;;2.37;1.63;;;;;;;3.36;100.00;97803.29;640447;222;24103;-73
2020/12/29 09:29:58;;;;;;;1.70;1.60;;;;;;;3.35;100.00;97813.24;648935;218;26951;-74
2020/12/29 09:32:28;;;;;;;2.23;1.47;;;;;;;3.45;100.00;97815.67;649377;218;24767;-70
2020/12/29 09:35:24;;;;;;;1.33;1.23;;;;;;;3.63;100.00;97829.16;641329;222;24803;-70
2020/12/29 09:37:22;;;;;;;1.13;1.03;;;;;;;3.54;100.00;97830.95;637657;222;24841;-72
2020/12/29 09:39:50;;;;;;;2.17;1.40;;;;;;;3.63;100.00;97833.02;649162;217;24793;-74
2020/12/29 09:42:18;;;;;;;0.97;0.97;;;;;;;3.56;100.00;97849.57;651161;217;24795;-71
2020/12/29 09:44:46;;;;;;;1.30;1.20;;;;;;;3.75;100.00;97851.50;642339;221;25142;-71
2020/12/29 09:47:14;;;;;;;1.33;1.23;;;;;;;3.63;100.00;97860.00;643008;220;24818;-73
2020/12/29 09:49:42;;;;;;;1.07;1.07;;;;;;;3.67;100.00;97862.59;641512;221;24840;-74
2020/12/29 09:52:10;;;;;;;0.97;0.90;;;;;;;3.80;100.00;97872.38;629216;225;33376;-71
2020/12/29 09:54:38;;;;;;;1.40;1.23;;;;;;;3.90;100.00;97866.60;641042;221;24991;-73
2020/12/29 09:57:06;;;;;;;2.70;2.50;;;;;;;4.04;100.00;97863.38;642250;221;24844;-71
2020/12/29 09:59:34;;;;;;;2.47;2.37;;;;;;;3.95;100.00;97873.38;640548;221;24817;-71
2020/12/29 10:02:01;;;;;;;4.00;3.67;;;;;;;4.15;100.00;97877.69;633768;221;32666;-71
2020/12/29 10:04:29;;;;;;;1.70;1.60;;;;;;;4.11;100.00;97878.50;642674;221;26882;-70
2020/12/29 10:06:57;;;;;;;4.63;1.93;;;;;;;4.15;100.00;97879.78;648568;218;24812;-72
2020/12/29 10:09:25;;;;;;;2.03;1.83;;;;;;;4.24;100.00;97890.07;642252;221;24816;-72
2020/12/29 10:11:53;;;;;;;3.47;2.83;;;;;;;4.33;100.00;97896.31;641886;221;24835;-70
2020/12/29 10:14:21;;;;;;;8.97;6.83;;;;;;;4.75;100.00;97898.64;646418;218;24760;-70
2020/12/29 10:16:49;;;;;;;2.43;2.30;;;;;;;4.95;99.14;97907.28;649164;218;24793;-70
2020/12/29 10:19:17;;;;;;;2.83;2.63;;;;;;;5.09;98.00;97904.49;641926;218;24826;-73
2020/12/29 10:21:50;;;;;;;131.93;76.65;;;;;;;5.26;97.85;97909.40;621552;222;32926;-71
2020/12/29 10:24:18;;;;;;;129.70;77.97;;;;;;;5.07;97.94;97913.68;640181;222;23779;-74
2020/12/29 10:26:46;;;;;;;55.43;36.47;;;;;;;4.60;97.70;97920.08;641862;221;24802;-71
2020/12/29 10:29:14;;;;;;;712.37;546.53;;;;;;;4.46;100.00;97935.22;641853;221;24851;-71
2020/12/29 10:31:42;;;;;;;395.83;267.63;;;;;;;4.56;100.00;97941.48;641284;222;24969;-71
2020/12/29 10:34:11;;;;;;;104.00;57.70;;;;;;;4.35;100.00;97930.39;640454;221;24835;-72
2020/12/29 10:36:39;;;;;;;209.10;67.53;;;;;;;4.28;100.00;97941.52;641985;221;24841;-72
2020/12/29 10:39:08;;;;;;;13.23;7.93;;;;;;;4.43;100.00;97945.03;641190;221;24839;-72
2020/12/29 10:41:35;;;;;;;5.73;4.37;;;;;;;4.52;100.00;97942.78;641020;221;25862;-72
2020/12/29 10:44:03;;;;;;;3.70;2.97;;;;;;;4.40;100.00;97950.52;640677;222;32276;-71
2020/12/29 10:46:31;;;;;;;2.40;1.80;;;;;;;4.28;100.00;97955.66;640037;222;24822;-71
2020/12/29 10:48:59;;;;;;;2.30;2.13;;;;;;;4.26;100.00;97969.98;646278;218;24805;-72
2020/12/29 10:51:27;;;;;;;3.33;1.90;;;;;;;4.20;100.00;97973.17;643902;220;26018;-71
2020/12/29 10:53:55;;;;;;;2.50;2.10;;;;;;;4.40;100.00;97983.48;642332;221;24866;-71
2020/12/29 10:56:23;;;;;;;1.90;1.80;;;;;;;4.45;100.00;97979.13;642270;221;25139;-73
2020/12/29 10:58:51;;;;;;;2.02;1.80;;;;;;;4.53;98.76;97971.41;637524;220;32690;-71
2020/12/29 11:01:21;;;;;;;2.03;1.90;;;;;;;4.82;98.86;97979.91;640838;221;23688;-71
2020/12/29 11:03:49;;;;;;;2.07;1.90;;;;;;;4.91;98.50;97975.52;642347;221;29068;-71
2020/12/29 11:06:17;;;;;;;2.30;1.67;;;;;;;5.05;98.06;97974.84;647990;218;25082;-72
2020/12/29 11:08:45;;;;;;;3.65;2.00;;;;;;;5.18;96.23;97971.75;635822;221;32876;-73
2020/12/29 11:11:13;;;;;;;4.20;1.80;;;;;;;5.34;96.29;97980.22;641613;221;23705;-72
2020/12/29 11:13:41;;;;;;;2.30;1.83;;;;;;;5.25;95.89;97983.81;642228;221;24848;-72
2020/12/29 11:16:09;;;;;;;2.77;1.90;;;;;;;5.14;95.40;97984.65;642050;221;24885;-72
2020/12/29 11:18:37;;;;;;;3.05;2.00;;;;;;;5.41;95.52;97987.30;632711;221;32833;-71
2020/12/29 11:21:05;;;;;;;2.83;1.97;;;;;;;5.22;95.80;97979.00;638776;221;23779;-72
2020/12/29 11:23:33;;;;;;;2.70;2.00;;;;;;;5.16;96.58;97998.97;641424;221;24878;-72
2020/12/29 11:26:01;;;;;;;2.50;1.50;;;;;;;5.25;95.21;97991.54;641245;221;31544;-72
2020/12/29 11:28:29;;;;;;;2.40;1.90;;;;;;;5.40;95.28;97994.23;633370;222;32701;-71
2020/12/29 11:30:57;;;;;;;7.10;2.10;;;;;;;5.49;94.48;97992.40;640700;222;23737;-72
2020/12/29 11:33:24;;;;;;;15.70;6.00;;;;;;;5.13;94.65;97990.28;648082;218;24802;-73
2020/12/29 11:35:52;;;;;;;9.87;2.77;;;;;;;5.33;95.04;97991.98;645478;218;24791;-71
2020/12/29 11:38:21;;;;;;;4.93;2.10;;;;;;;5.40;94.06;97985.20;640118;222;24816;-72
2020/12/29 11:40:48;;;;;;;2.60;1.90;;;;;;;5.33;93.92;97985.05;639106;222;24812;-71